Time;durP1;ratioP1;P1;durP2;ratioP2;P2;SDS_P1;SDS_P2;PMS_P1;PMS_P2;Temp;Humidity;BMP_temperature;BMP_pressure;BME280_temperature;BME280_humidity;BME280_pressure;Samples;Min_cycle;Max_cycle;Signal;HPM_P1;HPM_P2
2022/03/24 00:02:10;;;;;;;79.82;45.33;;;9.40;95.90;;;;;;5049691;28;20043;-79
2022/03/24 00:04:36;;;;;;;84.78;43.92;;;9.50;97.00;;;;;;5033403;28;20120;-80
2022/03/24 00:07:02;;;;;;;75.55;45.42;;;9.30;96.60;;;;;;5034892;28;20064;-79
2022/03/24 00:09:28;;;;;;;83.68;45.67;;;9.10;98.10;;;;;;5034764;28;20095;-79
2022/03/24 00:11:55;;;;;;;76.70;45.47;;;9.20;98.50;;;;;;5034847;28;20458;-79
2022/03/24 00:14:22;;;;;;;69.35;44.03;;;9.30;98.80;;;;;;5033554;28;20033;-72
2022/03/24 00:16:48;;;;;;;77.95;45.70;;;9.80;96.90;;;;;;5034627;28;20037;-78
2022/03/24 00:19:17;;;;;;;76.28;45.95;;;9.90;96.60;;;;;;5034458;28;20087;-78
2022/03/24 00:21:44;;;;;;;76.20;46.80;;;10.00;95.90;;;;;;5033370;28;20404;-79
2022/03/24 00:24:10;;;;;;;83.40;46.42;;;9.90;96.10;;;;;;5034661;28;20022;-77
2022/03/24 00:26:36;;;;;;;79.90;45.90;;;9.60;96.70;;;;;;5034327;28;20116;-79
2022/03/24 00:29:02;;;;;;;79.78;45.58;;;9.80;96.60;;;;;;5034587;28;20478;-75
2022/03/24 00:31:29;;;;;;;80.40;45.53;;;9.70;96.70;;;;;;5034443;28;20113;-77
2022/03/24 00:33:55;;;;;;;86.00;46.58;;;9.70;97.10;;;;;;5034411;28;20374;-73
2022/03/24 00:36:22;;;;;;;75.88;45.22;;;9.60;97.00;;;;;;5034276;28;20025;-76
2022/03/24 00:38:52;;;;;;;79.70;43.10;;;9.40;97.20;;;;;;5033103;28;20029;-77
2022/03/24 00:41:19;;;;;;;88.40;46.28;;;9.60;97.70;;;;;;5034463;28;20385;-73
2022/03/24 00:43:49;;;;;;;76.13;45.70;;;8.90;98.70;;;;;;5034361;28;20021;-75
2022/03/24 00:46:22;;;;;;;74.18;43.45;;;8.60;99.90;;;;;;5033465;28;20116;-74
2022/03/24 00:48:50;;;;;;;72.72;43.38;;;8.70;99.90;;;;;;5052769;28;20174;-74
2022/03/24 00:51:18;;;;;;;81.05;46.05;;;8.70;99.90;;;;;;5053703;28;20033;-77
2022/03/24 00:53:44;;;;;;;76.88;45.10;;;8.70;99.90;;;;;;5052744;28;20489;-78
2022/03/24 00:56:10;;;;;;;75.50;45.08;;;8.40;99.90;;;;;;5054108;28;20037;-74
2022/03/24 00:58:38;;;;;;;76.03;44.63;;;8.10;99.90;;;;;;5052516;28;20110;-77
2022/03/24 01:01:06;;;;;;;80.97;45.58;;;8.00;99.90;;;;;;5052590;28;20120;-73
2022/03/24 01:03:32;;;;;;;80.80;44.05;;;8.00;99.90;;;;;;5036730;28;20029;-75
2022/03/24 01:05:58;;;;;;;75.60;44.92;;;8.10;99.90;;;;;;5016128;28;20068;-70
2022/03/24 01:08:24;;;;;;;74.07;42.95;;;8.40;99.90;;;;;;5033732;28;20057;-77
2022/03/24 01:10:51;;;;;;;80.50;45.47;;;8.10;99.90;;;;;;5033713;28;20489;-78
2022/03/24 01:13:21;;;;;;;78.70;45.75;;;8.20;99.90;;;;;;5051688;28;20474;-79
2022/03/24 01:15:50;;;;;;;76.95;45.75;;;8.20;99.90;;;;;;5052159;28;20033;-79
2022/03/24 01:18:19;;;;;;;84.60;45.97;;;8.30;99.90;;;;;;5053416;28;20032;-78
2022/03/24 01:20:46;;;;;;;70.60;45.20;;;8.60;99.90;;;;;;5053650;28;20056;-77
2022/03/24 01:23:13;;;;;;;80.63;46.65;;;8.40;99.90;;;;;;5052026;28;20029;-79
2022/03/24 01:25:42;;;;;;;79.00;45.65;;;8.60;99.90;;;;;;5052017;28;20047;-79
2022/03/24 01:28:09;;;;;;;83.88;47.22;;;8.60;99.90;;;;;;5051979;28;20393;-79
2022/03/24 01:30:39;;;;;;;80.35;46.47;;;8.90;99.90;;;;;;5052034;28;20034;-80
2022/03/24 01:33:06;;;;;;;78.57;45.22;;;9.20;99.90;;;;;;5051538;28;20016;-79
2022/03/24 01:35:33;;;;;;;79.65;45.25;;;9.30;99.90;;;;;;5051946;28;20017;-79
2022/03/24 01:37:59;;;;;;;75.60;45.65;;;9.20;99.90;;;;;;5051885;28;20059;-79
2022/03/24 01:40:26;;;;;;;83.28;45.58;;;8.40;99.90;;;;;;5052819;28;20028;-79
2022/03/24 01:42:52;;;;;;;76.93;44.28;;;8.60;99.90;;;;;;5051837;28;20112;-79
2022/03/24 01:45:19;;;;;;;75.40;45.45;;;8.90;99.90;;;;;;5051827;28;20112;-79
2022/03/24 01:47:45;;;;;;;84.15;44.60;;;8.90;99.90;;;;;;5052500;28;20438;-79
2022/03/24 01:50:15;;;;;;;79.90;44.78;;;8.50;99.90;;;;;;5052111;28;20142;-79
2022/03/24 01:52:40;;;;;;;89.63;46.63;;;8.60;99.90;;;;;;5051477;28;20044;-79
2022/03/24 01:55:07;;;;;;;75.07;43.60;;;8.90;99.90;;;;;;5051542;28;20039;-78
2022/03/24 01:57:35;;;;;;;82.68;47.53;;;8.10;99.90;;;;;;5051401;28;20060;-79
2022/03/24 02:00:04;;;;;;;72.28;44.63;;;8.10;99.90;;;;;;5051677;28;20478;-78
2022/03/24 02:02:41;;;;;;;85.10;48.05;;;8.40;99.90;;;;;;5043204;28;20061;-77
2022/03/24 02:05:09;;;;;;;88.63;48.47;;;8.00;99.90;;;;;;5031745;28;20060;-77
2022/03/24 02:07:36;;;;;;;86.57;46.65;;;7.70;99.90;;;;;;5031387;28;20421;-74
2022/03/24 02:10:05;;;;;;;98.57;46.80;;;7.50;99.90;;;;;;5031491;28;20092;-76
2022/03/24 02:12:33;;;;;;;80.65;45.65;;;7.60;99.90;;;;;;5031530;28;20029;-72
2022/03/24 02:15:00;;;;;;;91.53;49.20;;;7.60;99.90;;;;;;5031282;28;20028;-80
2022/03/24 02:17:30;;;;;;;93.93;48.15;;;8.00;99.90;;;;;;5031321;28;20064;-78
2022/03/24 02:20:00;;;;;;;80.10;46.05;;;7.90;99.90;;;;;;5031596;28;20025;-78
2022/03/24 02:22:29;;;;;;;84.07;47.60;;;8.00;99.90;;;;;;5032481;28;20037;-79
2022/03/24 02:24:55;;;;;;;91.03;50.83;;;8.30;99.90;;;;;;5032508;28;20486;-73
2022/03/24 02:27:22;;;;;;;86.80;46.83;;;8.40;99.90;;;;;;5032610;28;20037;-77
2022/03/24 02:29:49;;;;;;;82.03;48.05;;;8.60;99.90;;;;;;5032356;28;20083;-78
2022/03/24 02:32:20;;;;;;;78.63;45.97;;;8.90;99.90;;;;;;5032751;28;20034;-79
2022/03/24 02:34:49;;;;;;;81.63;46.95;;;8.80;99.90;;;;;;5032483;28;20075;-79
2022/03/24 02:37:23;;;;;;;92.45;48.10;;;8.30;99.90;;;;;;5032710;28;20026;-79
2022/03/24 02:39:55;;;;;;;76.65;45.03;;;8.50;99.90;;;;;;5032461;28;20030;-78
2022/03/24 02:42:23;;;;;;;81.80;48.63;;;8.50;99.90;;;;;;5032782;28;20045;-79
2022/03/24 02:44:52;;;;;;;85.18;47.35;;;8.60;99.90;;;;;;5032267;28;20033;-80
2022/03/24 02:47:17;;;;;;;86.07;47.85;;;8.60;99.90;;;;;;5040273;28;20036;-77
2022/03/24 02:49:47;;;;;;;79.70;47.63;;;7.90;99.90;;;;;;5052015;28;20473;-80
2022/03/24 02:52:13;;;;;;;79.53;46.17;;;7.60;99.90;;;;;;5051234;28;20029;-80
2022/03/24 02:54:39;;;;;;;84.85;47.03;;;7.70;99.90;;;;;;5052118;28;20033;-80
2022/03/24 02:57:06;;;;;;;90.63;49.28;;;7.90;99.90;;;;;;5052482;28;20083;-81
2022/03/24 02:59:32;;;;;;;81.07;46.88;;;7.20;99.90;;;;;;5051967;28;20457;-79
2022/03/24 03:01:59;;;;;;;89.03;48.40;;;7.50;99.90;;;;;;5048764;28;20091;-80
2022/03/24 03:04:26;;;;;;;95.10;48.28;;;7.60;99.90;;;;;;5032258;28;20057;-80
2022/03/24 03:06:54;;;;;;;81.30;47.22;;;7.20;99.90;;;;;;5031116;28;20021;-80
2022/03/24 03:09:21;;;;;;;86.40;47.35;;;7.50;99.90;;;;;;5032518;28;20041;-80
2022/03/24 03:11:48;;;;;;;89.13;49.40;;;7.50;99.90;;;;;;5032184;28;20623;-80
2022/03/24 03:14:15;;;;;;;78.85;47.00;;;7.80;99.90;;;;;;5031932;28;20030;-80
2022/03/24 03:16:42;;;;;;;76.60;46.95;;;7.70;99.90;;;;;;5031547;28;20025;-80
2022/03/24 03:19:08;;;;;;;80.30;46.95;;;7.80;99.90;;;;;;5030548;28;20068;-80
2022/03/24 03:21:41;;;;;;;80.63;47.33;;;7.70;99.90;;;;;;5032174;28;20056;-81
2022/03/24 03:24:10;;;;;;;79.93;45.92;;;7.20;99.90;;;;;;5032171;28;20033;-81
2022/03/24 03:26:37;;;;;;;88.70;48.03;;;6.60;99.90;;;;;;5050360;28;20127;-80
2022/03/24 03:29:03;;;;;;;80.55;47.97;;;6.40;99.90;;;;;;5075295;28;20431;-79
2022/03/24 03:31:29;;;;;;;87.50;49.00;;;6.40;99.90;;;;;;5075449;28;20485;-80
2022/03/24 03:33:55;;;;;;;87.63;49.25;;;6.90;99.90;;;;;;5075599;28;20031;-81
2022/03/24 03:36:23;;;;;;;82.60;47.47;;;6.80;99.90;;;;;;5075514;28;20021;-79
2022/03/24 03:38:49;;;;;;;95.00;49.17;;;7.00;99.90;;;;;;5074225;28;20021;-81
2022/03/24 03:41:16;;;;;;;88.40;47.85;;;6.80;99.90;;;;;;5075578;28;20082;-80
2022/03/24 03:43:43;;;;;;;89.47;48.17;;;6.90;99.90;;;;;;5057013;28;20017;-81
2022/03/24 03:46:10;;;;;;;81.32;48.78;;;7.00;99.90;;;;;;5075280;28;20028;-81
2022/03/24 03:48:37;;;;;;;93.18;48.67;;;7.30;99.90;;;;;;5035331;28;20037;-81
2022/03/24 03:51:05;;;;;;;81.78;47.03;;;7.10;99.90;;;;;;5035468;28;20037;-81
2022/03/24 03:53:32;;;;;;;91.15;46.97;;;7.00;99.90;;;;;;5035250;28;20069;-77
2022/03/24 03:55:58;;;;;;;83.25;48.50;;;7.00;99.90;;;;;;5034079;28;20034;-81
2022/03/24 03:58:24;;;;;;;89.40;48.42;;;7.10;99.90;;;;;;5034976;28;20540;-80
2022/03/24 04:00:52;;;;;;;87.30;48.10;;;7.40;99.90;;;;;;5035149;28;20021;-81
2022/03/24 04:03:39;;;;;;;86.45;47.88;;;7.40;99.90;;;;;;5048059;28;20032;-81
2022/03/24 04:06:08;;;;;;;86.13;48.78;;;7.30;99.90;;;;;;5054930;28;20079;-81
2022/03/24 04:08:35;;;;;;;83.30;48.15;;;6.90;99.90;;;;;;5054954;28;20018;-81
2022/03/24 04:11:01;;;;;;;80.07;46.15;;;6.60;99.90;;;;;;5054516;28;20044;-81
2022/03/24 04:13:28;;;;;;;81.50;46.90;;;6.80;99.90;;;;;;5054634;28;20025;-80
2022/03/24 04:15:54;;;;;;;88.07;48.60;;;6.40;99.90;;;;;;5054974;28;20450;-81
2022/03/24 04:18:22;;;;;;;94.90;51.13;;;6.70;99.90;;;;;;5054933;28;20056;-81
2022/03/24 04:20:49;;;;;;;87.78;48.67;;;6.60;99.90;;;;;;5054613;28;20032;-81
2022/03/24 04:23:15;;;;;;;91.72;50.45;;;6.90;99.90;;;;;;5054416;28;20108;-81
2022/03/24 04:25:42;;;;;;;94.50;49.25;;;7.00;99.90;;;;;;5052805;28;20182;-81
2022/03/24 04:28:08;;;;;;;111.55;47.53;;;6.90;99.90;;;;;;5054730;28;20044;-81
2022/03/24 04:30:35;;;;;;;93.57;49.13;;;7.10;99.90;;;;;;5054425;28;20123;-78
2022/03/24 04:33:01;;;;;;;95.85;48.65;;;7.10;99.90;;;;;;5054529;28;20044;-81
2022/03/24 04:35:27;;;;;;;86.15;46.40;;;7.20;99.90;;;;;;5052929;28;20032;-81
2022/03/24 04:37:53;;;;;;;95.80;48.60;;;7.00;99.90;;;;;;5053935;28;20355;-81
2022/03/24 04:40:20;;;;;;;87.57;47.25;;;6.90;99.90;;;;;;5053941;28;20393;-81
2022/03/24 04:42:49;;;;;;;84.75;49.65;;;7.00;99.90;;;;;;5054331;28;20386;-80
2022/03/24 04:45:17;;;;;;;82.25;49.33;;;7.10;99.90;;;;;;5054353;28;20064;-81
2022/03/24 04:47:44;;;;;;;86.38;47.83;;;7.20;99.90;;;;;;5052510;28;20083;-73
2022/03/24 04:50:10;;;;;;;83.28;47.00;;;7.10;99.90;;;;;;5054064;28;20107;-81
2022/03/24 04:52:36;;;;;;;92.78;48.88;;;6.80;99.90;;;;;;5052792;28;20033;-81
2022/03/24 04:55:03;;;;;;;83.90;47.30;;;6.40;99.90;;;;;;5054046;28;20346;-82
2022/03/24 04:57:29;;;;;;;83.20;47.78;;;6.10;99.90;;;;;;5052575;28;20064;-81
2022/03/24 04:59:55;;;;;;;106.72;49.65;;;6.10;99.90;;;;;;5053880;28;20060;-81
2022/03/24 05:02:21;;;;;;;81.20;46.58;;;6.30;99.90;;;;;;5046971;28;20509;-77
2022/03/24 05:04:46;;;;;;;100.90;49.60;;;6.10;99.90;;;;;;5033760;28;20065;-81
2022/03/24 05:07:13;;;;;;;88.32;48.20;;;6.20;99.90;;;;;;5033867;28;20104;-81
2022/03/24 05:09:39;;;;;;;90.90;48.00;;;6.20;99.90;;;;;;5033566;28;20048;-81
2022/03/24 05:12:05;;;;;;;88.90;48.45;;;6.10;99.90;;;;;;5033664;28;20041;-80
2022/03/24 05:14:32;;;;;;;82.30;45.97;;;6.30;99.90;;;;;;5033609;28;20021;-81
2022/03/24 05:16:58;;;;;;;96.57;49.90;;;5.70;99.90;;;;;;5032321;28;20030;-81
2022/03/24 05:19:24;;;;;;;89.65;51.03;;;5.40;99.90;;;;;;5033805;28;20025;-81
2022/03/24 05:21:50;;;;;;;86.75;46.38;;;5.70;99.90;;;;;;5033837;28;20071;-81
2022/03/24 05:24:17;;;;;;;87.15;49.33;;;5.50;99.90;;;;;;5031920;28;20060;-81
2022/03/24 05:26:43;;;;;;;89.53;49.00;;;5.80;99.90;;;;;;5033262;28;20045;-81
2022/03/24 05:29:09;;;;;;;90.78;50.22;;;6.00;99.90;;;;;;5015800;28;20028;-81
2022/03/24 05:31:35;;;;;;;97.20;49.80;;;5.60;99.90;;;;;;5033375;28;20037;-81
2022/03/24 05:34:02;;;;;;;84.85;49.25;;;5.70;99.90;;;;;;5033294;28;20090;-80
2022/03/24 05:36:28;;;;;;;84.25;48.58;;;5.90;99.90;;;;;;5015625;28;20025;-81
2022/03/24 05:38:54;;;;;;;93.70;49.78;;;5.80;99.90;;;;;;5033060;28;20069;-81
2022/03/24 05:41:20;;;;;;;85.05;49.17;;;6.10;99.90;;;;;;5031935;28;20038;-80
2022/03/24 05:44:02;;;;;;;89.40;49.03;;;6.40;99.90;;;;;;5033204;28;20371;-76
2022/03/24 05:46:44;;;;;;;87.53;49.88;;;6.30;99.90;;;;;;5052597;28;20068;-79
2022/03/24 05:49:15;;;;;;;96.47;52.15;;;6.10;99.90;;;;;;5052519;28;20421;-77
2022/03/24 05:51:59;;;;;;;88.90;51.60;;;6.20;99.90;;;;;;5052842;28;20056;-81
2022/03/24 05:54:25;;;;;;;88.20;50.30;;;5.80;99.90;;;;;;5052778;28;20025;-79
2022/03/24 05:56:51;;;;;;;94.15;49.78;;;5.90;99.90;;;;;;5052648;28;20385;-79
2022/03/24 05:59:16;;;;;;;97.95;53.13;;;5.90;99.90;;;;;;5052962;28;20025;-80
2022/03/24 06:01:44;;;;;;;107.53;55.65;;;6.10;99.90;;;;;;5051279;28;20479;-80
2022/03/24 06:04:13;;;;;;;107.28;51.88;;;6.30;99.90;;;;;;5033038;28;20156;-78
2022/03/24 06:06:40;;;;;;;101.13;52.53;;;6.10;99.90;;;;;;5033175;28;20496;-77
2022/03/24 06:09:07;;;;;;;98.57;53.88;;;6.10;99.90;;;;;;5032584;28;20428;-79
2022/03/24 06:11:35;;;;;;;104.28;52.35;;;6.30;99.90;;;;;;5032844;28;20061;-81
2022/03/24 06:14:07;;;;;;;97.78;53.03;;;6.40;99.90;;;;;;5032569;28;20040;-81
2022/03/24 06:16:34;;;;;;;100.43;53.75;;;6.60;99.90;;;;;;5032730;28;20040;-79
2022/03/24 06:19:00;;;;;;;98.07;51.17;;;6.60;99.90;;;;;;5032688;28;20124;-81
2022/03/24 06:21:26;;;;;;;113.07;52.70;;;6.50;99.90;;;;;;5031239;28;20069;-79
2022/03/24 06:23:53;;;;;;;89.72;51.83;;;6.90;99.90;;;;;;5032442;28;20091;-80
2022/03/24 06:26:21;;;;;;;103.28;51.90;;;6.80;99.90;;;;;;5032300;28;20045;-77
2022/03/24 06:28:48;;;;;;;97.88;52.92;;;6.80;99.90;;;;;;5031349;28;20478;-81
2022/03/24 06:31:14;;;;;;;103.72;53.00;;;6.80;99.90;;;;;;5032711;28;20394;-81
2022/03/24 06:33:40;;;;;;;106.65;53.83;;;6.90;99.90;;;;;;5032623;28;20538;-79
2022/03/24 06:36:08;;;;;;;92.72;50.97;;;6.90;99.90;;;;;;5032340;28;20026;-79
2022/03/24 06:38:35;;;;;;;104.22;54.25;;;7.10;99.90;;;;;;5032416;28;20034;-80
2022/03/24 06:41:01;;;;;;;97.90;54.15;;;7.40;99.90;;;;;;5032708;28;20029;-80
2022/03/24 06:43:27;;;;;;;109.90;55.25;;;7.40;99.90;;;;;;5032308;28;20025;-81
2022/03/24 06:45:53;;;;;;;101.65;54.53;;;7.80;99.90;;;;;;5032637;28;20054;-73
2022/03/24 06:48:19;;;;;;;103.82;54.72;;;7.60;99.90;;;;;;5049978;28;20494;-82
2022/03/24 06:50:45;;;;;;;90.70;54.05;;;7.40;99.90;;;;;;5050812;28;20115;-77
2022/03/24 06:53:10;;;;;;;106.15;56.22;;;7.50;99.90;;;;;;5052135;28;20033;-74
2022/03/24 06:55:36;;;;;;;104.43;58.13;;;8.00;99.90;;;;;;5034259;28;20561;-81
2022/03/24 06:58:02;;;;;;;109.57;57.55;;;8.00;99.90;;;;;;5050971;28;20067;-80
2022/03/24 07:00:28;;;;;;;110.60;55.45;;;8.00;99.90;;;;;;5053493;28;20040;-78
2022/03/24 07:02:54;;;;;;;125.70;60.03;;;7.80;99.90;;;;;;5043324;28;20029;-79
2022/03/24 07:05:20;;;;;;;121.07;61.92;;;8.00;99.90;;;;;;5035715;28;20044;-78
2022/03/24 07:07:45;;;;;;;111.97;60.20;;;8.30;99.90;;;;;;5036062;28;20060;-80
2022/03/24 07:10:12;;;;;;;115.93;60.17;;;8.40;99.90;;;;;;5035857;28;20030;-80
2022/03/24 07:12:41;;;;;;;125.53;58.78;;;8.90;99.90;;;;;;5036014;28;20112;-76
2022/03/24 07:15:12;;;;;;;129.20;61.20;;;8.80;99.90;;;;;;5034573;28;20444;-76
2022/03/24 07:17:38;;;;;;;121.55;62.05;;;8.90;99.90;;;;;;5034907;28;20037;-77
2022/03/24 07:20:07;;;;;;;148.85;63.20;;;8.80;99.90;;;;;;5041711;28;20063;-79
2022/03/24 07:22:34;;;;;;;132.63;62.65;;;9.20;99.90;;;;;;5045104;28;20028;-81
2022/03/24 07:25:01;;;;;;;120.25;62.03;;;9.60;99.90;;;;;;5036717;28;20054;-81
2022/03/24 07:27:26;;;;;;;125.57;64.20;;;9.90;99.90;;;;;;5037197;28;20037;-81
2022/03/24 07:29:52;;;;;;;117.32;61.17;;;10.00;99.90;;;;;;5037069;28;20105;-80
2022/03/24 07:32:19;;;;;;;116.97;61.22;;;10.20;99.90;;;;;;5035524;28;20565;-80
2022/03/24 07:34:45;;;;;;;158.18;63.85;;;10.50;99.90;;;;;;5035506;28;20025;-83
2022/03/24 07:37:11;;;;;;;134.63;64.38;;;10.50;99.90;;;;;;5035595;28;20381;-77
2022/03/24 07:39:37;;;;;;;121.03;61.92;;;10.80;99.90;;;;;;5035399;28;20084;-77
2022/03/24 07:42:04;;;;;;;119.25;63.25;;;11.00;99.90;;;;;;5036017;28;20466;-77
2022/03/24 07:44:30;;;;;;;113.28;62.83;;;11.00;99.90;;;;;;5034744;28;20040;-73
2022/03/24 07:46:56;;;;;;;114.75;62.25;;;10.90;99.90;;;;;;5034726;28;20382;-75
2022/03/24 07:49:22;;;;;;;115.35;62.53;;;10.80;99.90;;;;;;5037554;28;20029;-79
2022/03/24 07:51:48;;;;;;;115.25;62.42;;;10.90;99.90;;;;;;5055752;28;20072;-78
2022/03/24 07:54:14;;;;;;;108.30;62.42;;;11.30;99.90;;;;;;5055763;28;20052;-78
2022/03/24 07:56:39;;;;;;;120.30;64.13;;;11.60;99.90;;;;;;5046385;28;20486;-70
2022/03/24 07:59:06;;;;;;;113.95;61.75;;;12.10;99.90;;;;;;5035804;28;20104;-79
2022/03/24 08:01:34;;;;;;;123.38;65.95;;;12.20;99.90;;;;;;5034482;28;20033;-82
2022/03/24 08:04:02;;;;;;;103.28;61.10;;;12.40;99.90;;;;;;5034974;28;20030;-83
2022/03/24 08:06:30;;;;;;;102.70;60.72;;;12.50;99.90;;;;;;5034856;28;20021;-83
2022/03/24 08:08:56;;;;;;;95.88;58.83;;;12.10;99.90;;;;;;5035207;28;20033;-76
2022/03/24 08:11:22;;;;;;;106.95;58.33;;;12.00;99.90;;;;;;5033400;28;20029;-83
2022/03/24 08:13:53;;;;;;;94.00;54.67;;;12.10;99.90;;;;;;5035082;28;20454;-72
2022/03/24 08:16:27;;;;;;;96.65;57.92;;;12.50;99.90;;;;;;5035207;28;20535;-78
2022/03/24 08:18:54;;;;;;;91.15;55.67;;;12.50;99.90;;;;;;5034827;28;20060;-77
2022/03/24 08:21:20;;;;;;;89.20;56.47;;;12.80;99.90;;;;;;5053089;28;20037;-83
2022/03/24 08:23:46;;;;;;;99.53;54.97;;;13.20;99.90;;;;;;5054196;28;20025;-82
2022/03/24 08:26:12;;;;;;;98.53;55.97;;;13.20;99.90;;;;;;5054297;28;20052;-80
2022/03/24 08:28:38;;;;;;;113.47;58.33;;;13.40;99.90;;;;;;5053244;28;20044;-82
2022/03/24 08:31:04;;;;;;;112.72;58.05;;;13.80;99.90;;;;;;5040963;28;20068;-83
2022/03/24 08:33:29;;;;;;;107.57;58.58;;;13.70;99.90;;;;;;5034235;28;20021;-80
2022/03/24 08:35:55;;;;;;;132.18;59.58;;;13.90;99.90;;;;;;5034398;28;20390;-81
2022/03/24 08:38:21;;;;;;;103.38;56.15;;;14.10;99.90;;;;;;5034466;28;20547;-81
2022/03/24 08:40:47;;;;;;;113.25;60.40;;;14.50;99.90;;;;;;5034365;28;20076;-81
2022/03/24 08:43:13;;;;;;;118.10;62.13;;;14.50;99.90;;;;;;5034055;28;20075;-79
2022/03/24 08:45:39;;;;;;;108.47;58.22;;;14.70;99.90;;;;;;5034053;28;20025;-81
2022/03/24 08:48:06;;;;;;;107.80;58.72;;;14.60;99.90;;;;;;5049681;28;20037;-82
2022/03/24 08:50:32;;;;;;;98.38;55.40;;;14.90;99.90;;;;;;5041855;28;20053;-81
2022/03/24 08:52:59;;;;;;;111.47;55.05;;;14.90;99.90;;;;;;5034083;28;20159;-80
2022/03/24 08:55:25;;;;;;;99.35;54.30;;;15.00;99.90;;;;;;5033995;28;20036;-81
2022/03/24 08:57:51;;;;;;;91.45;52.53;;;15.20;99.90;;;;;;5032829;28;20037;-81
2022/03/24 09:00:17;;;;;;;85.60;49.38;;;15.30;99.10;;;;;;5033891;28;20029;-81
2022/03/24 09:02:46;;;;;;;93.00;45.90;;;15.50;97.80;;;;;;5033551;28;20030;-81
2022/03/24 09:05:16;;;;;;;85.38;47.85;;;15.80;96.60;;;;;;5033960;28;20103;-81
2022/03/24 09:07:42;;;;;;;81.88;44.58;;;16.00;96.40;;;;;;5034009;28;20040;-82
2022/03/24 09:10:10;;;;;;;89.60;45.95;;;16.20;94.10;;;;;;5033779;28;20029;-81
2022/03/24 09:12:38;;;;;;;92.25;44.80;;;16.10;93.80;;;;;;5033697;28;20026;-80
2022/03/24 09:15:05;;;;;;;94.05;45.38;;;16.20;93.40;;;;;;5033722;28;20087;-77
2022/03/24 09:17:36;;;;;;;97.57;45.60;;;16.20;93.80;;;;;;5031275;28;20025;-80
2022/03/24 09:20:04;;;;;;;81.95;44.00;;;16.30;93.70;;;;;;5031380;28;20083;-79
2022/03/24 09:22:30;;;;;;;81.90;44.47;;;16.50;93.30;;;;;;5032871;28;20033;-81
2022/03/24 09:24:57;;;;;;;88.43;45.50;;;16.70;92.60;;;;;;5032534;28;20064;-81
2022/03/24 09:27:23;;;;;;;93.28;45.45;;;16.70;92.90;;;;;;5031999;28;20072;-81
2022/03/24 09:29:52;;;;;;;112.60;48.80;;;16.50;93.00;;;;;;5033676;28;20405;-80
2022/03/24 09:32:18;;;;;;;96.15;44.47;;;17.00;92.30;;;;;;5033125;28;20489;-82
2022/03/24 09:34:44;;;;;;;91.55;43.78;;;17.20;93.00;;;;;;5033566;28;20056;-81
2022/03/24 09:37:10;;;;;;;76.30;41.50;;;17.30;91.80;;;;;;5033235;28;20039;-82
2022/03/24 09:39:36;;;;;;;73.13;39.63;;;17.40;91.30;;;;;;5033471;28;20049;-82
2022/03/24 09:42:02;;;;;;;78.43;39.97;;;17.70;90.10;;;;;;5033236;28;20375;-82
2022/03/24 09:44:30;;;;;;;90.60;39.53;;;18.10;89.80;;;;;;5033128;28;20036;-81
2022/03/24 09:46:55;;;;;;;72.20;37.45;;;18.10;89.00;;;;;;5038094;28;20028;-77
2022/03/24 09:49:21;;;;;;;71.80;36.83;;;18.30;85.30;;;;;;5051988;28;20167;-82
2022/03/24 09:51:49;;;;;;;82.25;36.10;;;18.20;85.10;;;;;;5053003;28;20075;-83
2022/03/24 09:54:15;;;;;;;77.35;37.30;;;18.30;84.50;;;;;;5052939;28;20028;-82
2022/03/24 09:56:41;;;;;;;67.45;34.65;;;18.40;83.10;;;;;;5053282;28;20033;-83
2022/03/24 09:59:09;;;;;;;83.30;38.05;;;18.50;83.70;;;;;;5052723;28;20083;-84
2022/03/24 10:01:36;;;;;;;80.00;36.80;;;18.70;83.10;;;;;;5052613;28;20473;-83
2022/03/24 10:04:14;;;;;;;67.90;36.15;;;18.70;81.70;;;;;;5045558;28;20036;-83
2022/03/24 10:06:57;;;;;;;74.38;38.95;;;18.90;82.50;;;;;;5032743;28;20156;-79
2022/03/24 10:09:44;;;;;;;59.67;34.75;;;18.70;82.90;;;;;;5032850;28;20517;-83
2022/03/24 10:12:20;;;;;;;70.82;37.15;;;18.70;79.60;;;;;;5032741;28;20097;-82
2022/03/24 10:15:13;;;;;;;61.50;35.60;;;18.80;79.90;;;;;;5031322;28;20116;-84
2022/03/24 10:17:50;;;;;;;60.72;33.83;;;18.90;80.00;;;;;;5032790;28;20034;-84
2022/03/24 10:20:16;;;;;;;63.70;35.58;;;19.50;80.50;;;;;;5032872;28;20546;-85
2022/03/24 10:22:54;;;;;;;61.25;31.30;;;19.50;80.10;;;;;;5032661;28;20029;-85
2022/03/24 10:25:28;;;;;;;68.80;32.17;;;19.70;77.50;;;;;;5032789;28;20044;-83
2022/03/24 10:28:08;;;;;;;51.33;27.40;;;19.80;76.90;;;;;;5033210;28;20057;-85
2022/03/24 10:30:55;;;;;;;60.05;28.65;;;19.90;74.90;;;;;;5032842;28;20040;-86
2022/03/24 10:33:38;;;;;;;48.42;29.13;;;19.80;75.00;;;;;;5042054;28;20401;-85
2022/03/24 10:36:11;;;;;;;54.33;34.08;;;19.90;73.40;;;;;;5053754;28;20462;-83
2022/03/24 10:38:45;;;;;;;59.03;31.23;;;20.20;75.30;;;;;;5056402;28;20123;-85
2022/03/24 10:41:19;;;;;;;55.22;28.27;;;20.00;72.70;;;;;;5055374;28;20108;-84
2022/03/24 10:43:51;;;;;;;67.10;37.53;;;19.80;72.80;;;;;;5056119;28;20033;-82
2022/03/24 10:46:18;;;;;;;;;;;20.30;75.20;;;;;;5054752;28;20428;-85
2022/03/24 10:48:47;;;;;;;56.90;34.85;;;20.50;75.10;;;;;;5054351;28;20449;-83
2022/03/24 10:51:24;;;;;;;61.42;36.92;;;20.50;73.80;;;;;;5056031;28;20049;-83
2022/03/24 10:53:51;;;;;;;62.70;33.95;;;21.20;72.20;;;;;;5052255;28;20458;-82
2022/03/24 10:56:25;;;;;;;56.83;32.15;;;21.30;70.90;;;;;;5056274;28;20041;-82
2022/03/24 10:58:57;;;;;;;50.83;33.08;;;21.60;68.70;;;;;;5055882;28;20051;-83
2022/03/24 11:01:27;;;;;;;69.65;34.35;;;21.20;70.00;;;;;;5054892;28;20041;-83
2022/03/24 11:03:53;;;;;;;58.30;33.50;;;21.30;70.60;;;;;;5055752;28;20021;-82
2022/03/24 11:06:22;;;;;;;68.50;38.28;;;21.30;70.40;;;;;;5034767;28;20033;-83
2022/03/24 11:08:52;;;;;;;63.13;36.10;;;21.40;71.70;;;;;;5035572;28;20024;-82
2022/03/24 11:11:19;;;;;;;51.70;31.00;;;21.40;70.60;;;;;;5035491;28;20042;-83
2022/03/24 11:13:47;;;;;;;40.38;21.70;;;21.40;69.90;;;;;;5034361;28;20108;-83
2022/03/24 11:16:15;;;;;;;45.60;24.27;;;21.80;66.60;;;;;;5035792;28;20065;-84
2022/03/24 11:18:41;;;;;;;46.58;22.90;;;21.50;67.80;;;;;;5034221;28;20505;-84
2022/03/24 11:21:20;;;;;;;61.47;25.95;;;21.50;66.60;;;;;;5035644;28;20367;-85
2022/03/24 11:23:46;;;;;;;48.95;21.15;;;22.00;67.30;;;;;;5035614;28;20116;-83
2022/03/24 11:26:13;;;;;;;37.75;17.30;;;22.60;64.90;;;;;;5035310;28;20076;-83
2022/03/24 11:28:39;;;;;;;38.00;19.00;;;22.40;62.80;;;;;;5036046;28;20036;-83
2022/03/24 11:31:10;;;;;;;44.58;20.00;;;22.40;63.00;;;;;;5035079;28;20033;-83
2022/03/24 11:33:47;;;;;;;42.38;19.33;;;22.40;65.20;;;;;;5035718;28;20034;-83
2022/03/24 11:36:19;;;;;;;37.75;19.55;;;22.20;63.40;;;;;;5035629;28;20030;-84
2022/03/24 11:38:51;;;;;;;43.97;19.40;;;22.90;62.50;;;;;;5035505;28;20441;-81
2022/03/24 11:41:38;;;;;;;45.13;23.05;;;23.60;63.20;;;;;;5035069;28;20040;-78
2022/03/24 11:44:08;;;;;;;34.58;18.90;;;24.20;60.70;;;;;;5035185;28;20451;-76
2022/03/24 11:46:45;;;;;;;42.83;20.10;;;23.30;59.80;;;;;;5035514;28;20539;-78
2022/03/24 11:49:26;;;;;;;41.25;22.10;;;23.50;61.20;;;;;;5052195;28;20029;-79
2022/03/24 11:51:57;;;;;;;50.85;24.42;;;23.40;59.40;;;;;;5055306;28;20041;-85
2022/03/24 11:54:33;;;;;;;;;;;23.70;61.80;;;;;;5054461;28;20523;-85
2022/03/24 11:57:23;;;;;;;43.85;25.63;;;23.90;60.40;;;;;;5074756;28;19962;-84
2022/03/24 12:00:10;;;;;;;48.58;26.23;;;23.60;59.50;;;;;;5075308;28;20180;-87
2022/03/24 12:02:36;;;;;;;48.15;27.15;;;23.60;60.70;;;;;;5057912;28;20033;-85
2022/03/24 12:05:01;;;;;;;58.80;28.45;;;23.10;60.10;;;;;;5035198;28;20026;-85
2022/03/24 12:07:29;;;;;;;51.60;27.88;;;24.20;61.60;;;;;;5035351;28;20036;-86
2022/03/24 12:09:58;;;;;;;48.88;29.38;;;24.60;60.00;;;;;;5034764;28;20026;-85
2022/03/24 12:12:24;;;;;;;44.17;27.13;;;25.80;59.70;;;;;;5035140;28;20041;-86
2022/03/24 12:14:53;;;;;;;44.30;24.55;;;26.00;58.90;;;;;;5035202;28;20092;-86
2022/03/24 12:17:23;;;;;;;50.67;28.45;;;27.20;57.70;;;;;;5034969;28;20040;-85
2022/03/24 12:19:59;;;;;;;42.42;25.70;;;26.80;57.00;;;;;;5035000;28;20482;-85
2022/03/24 12:22:25;;;;;;;44.53;24.92;;;26.90;56.70;;;;;;5051848;28;20016;-86
2022/03/24 12:24:57;;;;;;;45.53;25.75;;;26.70;59.00;;;;;;5054351;28;20512;-86
2022/03/24 12:27:23;;;;;;;49.63;26.58;;;26.50;57.10;;;;;;5054882;28;20469;-84
2022/03/24 12:30:11;;;;;;;53.03;27.83;;;27.30;55.80;;;;;;5054726;28;20025;-83
2022/03/24 12:32:37;;;;;;;42.70;25.92;;;27.40;56.30;;;;;;5054535;28;20041;-82
2022/03/24 12:35:04;;;;;;;45.58;25.38;;;26.80;55.80;;;;;;5054845;28;20021;-83
2022/03/24 12:37:32;;;;;;;38.78;22.27;;;26.80;53.90;;;;;;5053222;28;20033;-84